createdAt,value
2018-09-26T00:01:22.435Z,100231.85
2018-09-26T00:03:53.928Z,100230.92
2018-09-26T00:06:22.634Z,100235.56
2018-09-26T00:08:51.222Z,100231.31
2018-09-26T00:11:19.795Z,100230.79
2018-09-26T00:13:48.374Z,100227.02
2018-09-26T00:16:17.005Z,100217.03
2018-09-26T00:18:45.586Z,100214.45
2018-09-26T00:21:14.126Z,100216.20
2018-09-26T00:23:42.720Z,100209.78
2018-09-26T00:26:11.673Z,100206.22
2018-09-26T00:28:40.189Z,100212.78
2018-09-26T00:31:09.615Z,100212.70
2018-09-26T00:33:38.409Z,100212.57
2018-09-26T00:36:07.070Z,100208.33
2018-09-26T00:38:35.522Z,100211.11
2018-09-26T00:41:04.133Z,100201.34
2018-09-26T00:43:32.745Z,100203.75
2018-09-26T00:46:01.306Z,100203.48
2018-09-26T00:48:29.853Z,100205.41
2018-09-26T00:50:58.521Z,100199.28
2018-09-26T00:53:27.002Z,100203.78
2018-09-26T00:55:55.525Z,100203.78
2018-09-26T00:58:23.964Z,100201.95
2018-09-26T01:00:52.516Z,100207.30
2018-09-26T01:03:21.163Z,100198.55
2018-09-26T01:05:49.669Z,100196.97
2018-09-26T01:08:18.228Z,100197.22
2018-09-26T01:10:46.771Z,100198.84
2018-09-26T01:13:15.258Z,100187.41
2018-09-26T01:15:44.260Z,100189.94
2018-09-26T01:18:13.014Z,100189.55
2018-09-26T01:20:43.944Z,100191.44
2018-09-26T01:23:12.740Z,100191.34
2018-09-26T01:25:41.836Z,100192.09
2018-09-26T01:28:11.802Z,100192.87
2018-09-26T01:30:40.298Z,100189.02
2018-09-26T01:33:09.037Z,100183.31
2018-09-26T01:35:37.561Z,100178.81
2018-09-26T01:38:06.481Z,100184.83
2018-09-26T01:40:35.130Z,100173.98
2018-09-26T01:43:03.617Z,100174.89
2018-09-26T01:45:32.114Z,100165.48
2018-09-26T01:48:00.582Z,100165.09
2018-09-26T01:50:29.058Z,100161.57
2018-09-26T01:52:57.959Z,100145.11
2018-09-26T01:55:26.446Z,100132.77
2018-09-26T01:57:54.959Z,100148.35
2018-09-26T02:00:23.516Z,100154.64
2018-09-26T02:02:52.111Z,100152.44
2018-09-26T02:05:20.801Z,100149.31
2018-09-26T02:07:50.269Z,100147.88
2018-09-26T02:10:18.822Z,100155.84
2018-09-26T02:12:47.300Z,100146.44
2018-09-26T02:15:15.847Z,100138.36
2018-09-26T02:17:44.766Z,100146.77
2018-09-26T02:20:13.306Z,100148.72
2018-09-26T02:22:41.782Z,100137.31
2018-09-26T02:25:10.649Z,100138.45
2018-09-26T02:27:39.182Z,100137.02
2018-09-26T02:30:08.745Z,100134.87
2018-09-26T02:32:37.319Z,100130.56
2018-09-26T02:35:05.942Z,100135.35
2018-09-26T02:37:34.469Z,100122.43
2018-09-26T02:40:03.018Z,100127.16
2018-09-26T02:43:35.463Z,100127.81
2018-09-26T02:46:03.983Z,100115.28
2018-09-26T02:48:38.029Z,100115.63
2018-09-26T02:51:06.583Z,100112.95
2018-09-26T02:53:35.131Z,100111.54
2018-09-26T02:56:03.614Z,100111.99
2018-09-26T02:58:32.142Z,100108.01
2018-09-26T03:01:00.654Z,100113.13
2018-09-26T03:03:29.199Z,100110.45
2018-09-26T03:05:57.638Z,100115.95
2018-09-26T03:08:26.126Z,100115.67
2018-09-26T03:10:54.651Z,100122.23
2018-09-26T03:13:23.165Z,100122.85
2018-09-26T03:15:51.710Z,100120.44
2018-09-26T03:18:20.271Z,100116.57
2018-09-26T03:20:49.004Z,100119.81
2018-09-26T03:23:17.818Z,100129.72
2018-09-26T03:25:46.310Z,100144.31
2018-09-26T03:28:14.801Z,100139.66
2018-09-26T03:30:43.300Z,100143.80
2018-09-26T03:33:12.043Z,100152.42
2018-09-26T03:35:40.550Z,100156.02
2018-09-26T03:38:09.455Z,100159.29
2018-09-26T03:40:38.038Z,100163.94
2018-09-26T03:43:06.770Z,100156.52
2018-09-26T03:45:35.872Z,100151.14
2018-09-26T03:48:04.549Z,100156.88
2018-09-26T03:50:37.179Z,100157.34
2018-09-26T03:53:07.733Z,100153.36
2018-09-26T03:55:39.522Z,100161.35
2018-09-26T03:58:08.461Z,100164.51
2018-09-26T04:00:36.986Z,100161.84
2018-09-26T04:03:05.795Z,100159.55
2018-09-26T04:05:34.296Z,100162.08
2018-09-26T04:08:02.822Z,100167.13
2018-09-26T04:10:31.415Z,100171.84
2018-09-26T04:13:04.345Z,100182.88
2018-09-26T04:15:37.024Z,100180.73
2018-09-26T04:18:05.843Z,100176.05
2018-09-26T04:20:34.426Z,100187.39
2018-09-26T04:23:02.870Z,100190.32
2018-09-26T04:25:31.392Z,100184.94
2018-09-26T04:27:59.865Z,100181.91
2018-09-26T04:30:28.386Z,100183.98
2018-09-26T04:32:57.325Z,100179.30
2018-09-26T04:35:25.707Z,100178.20
2018-09-26T04:37:54.450Z,100179.20
2018-09-26T04:40:23.034Z,100180.05
2018-09-26T04:42:51.610Z,100175.09
2018-09-26T04:45:20.205Z,100167.29
2018-09-26T04:47:48.745Z,100170.88
2018-09-26T04:50:17.241Z,100163.42
2018-09-26T04:52:46.611Z,100166.30
2018-09-26T04:55:15.266Z,100176.98
2018-09-26T04:57:43.914Z,100188.83
2018-09-26T05:00:12.503Z,100184.88
2018-09-26T05:02:41.309Z,100182.94
2018-09-26T05:05:10.485Z,100187.42
2018-09-26T05:07:38.921Z,100181.48
2018-09-26T05:10:07.946Z,100187.28
2018-09-26T05:12:36.462Z,100187.80
2018-09-26T05:15:06.201Z,100189.52
2018-09-26T05:17:34.877Z,100204.20
2018-09-26T05:20:03.437Z,100209.17
2018-09-26T05:22:32.182Z,100217.34
2018-09-26T05:25:00.674Z,100218.99
2018-09-26T05:27:29.206Z,100220.39
2018-09-26T05:29:57.877Z,100215.88
2018-09-26T05:32:26.427Z,100221.33
2018-09-26T05:34:54.929Z,100230.22
2018-09-26T05:37:23.363Z,100232.51
2018-09-26T05:39:51.894Z,100231.97
2018-09-26T05:42:20.627Z,100235.40
2018-09-26T05:44:49.159Z,100235.83
2018-09-26T05:47:17.716Z,100235.20
2018-09-26T05:49:46.828Z,100241.02
2018-09-26T05:52:15.304Z,100248.87
2018-09-26T05:54:44.000Z,100244.77
2018-09-26T05:57:12.630Z,100241.47
2018-09-26T05:59:41.427Z,100245.07
2018-09-26T06:02:10.359Z,100256.48
2018-09-26T06:04:38.945Z,100251.24
2018-09-26T06:07:07.654Z,100247.50
2018-09-26T06:09:36.178Z,100252.69
2018-09-26T06:12:04.800Z,100252.58
2018-09-26T06:14:33.303Z,100257.22
2018-09-26T06:17:02.809Z,100263.19
2018-09-26T06:19:31.242Z,100261.66
2018-09-26T06:21:59.757Z,100255.91
2018-09-26T06:24:28.263Z,100264.04
2018-09-26T06:26:56.842Z,100268.33
2018-09-26T06:29:25.400Z,100273.97
2018-09-26T06:31:53.924Z,100274.48
2018-09-26T06:34:22.422Z,100267.88
2018-09-26T06:36:51.001Z,100266.59
2018-09-26T06:39:19.495Z,100275.17
2018-09-26T06:41:48.079Z,100275.86
2018-09-26T06:44:16.699Z,100266.59
2018-09-26T06:46:45.220Z,100272.36
2018-09-26T06:49:13.757Z,100276.03
2018-09-26T06:51:42.369Z,100271.25
2018-09-26T06:54:11.284Z,100271.00
2018-09-26T06:56:39.714Z,100280.75
2018-09-26T06:59:08.408Z,100277.81
2018-09-26T07:01:36.938Z,100277.15
2018-09-26T07:04:05.453Z,100279.33
2018-09-26T07:06:33.932Z,100286.73
2018-09-26T07:09:02.433Z,100295.91
2018-09-26T07:11:30.942Z,100296.09
2018-09-26T07:13:59.529Z,100298.50
2018-09-26T07:16:28.106Z,100298.34
2018-09-26T07:18:56.671Z,100303.53
2018-09-26T07:21:25.406Z,100306.13
2018-09-26T07:23:53.981Z,100302.18
2018-09-26T07:26:22.519Z,100300.21
2018-09-26T07:28:50.980Z,100301.53
2018-09-26T07:31:19.571Z,100311.58
2018-09-26T07:33:48.135Z,100311.99
2018-09-26T07:36:16.655Z,100310.90
2018-09-26T07:38:45.294Z,100316.80
2018-09-26T07:41:14.024Z,100317.26
2018-09-26T07:43:42.777Z,100315.14
2018-09-26T07:46:11.426Z,100315.20
2018-09-26T07:48:40.181Z,100322.20
2018-09-26T07:51:08.735Z,100318.81
2018-09-26T07:53:37.299Z,100317.00
2018-09-26T07:56:05.865Z,100328.69
2018-09-26T07:58:34.485Z,100315.98
2018-09-26T08:01:02.962Z,100319.72
2018-09-26T08:03:31.502Z,100324.09
2018-09-26T08:06:00.442Z,100327.26
2018-09-26T08:08:28.944Z,100328.42
2018-09-26T08:10:57.400Z,100328.52
2018-09-26T08:13:25.901Z,100333.47
2018-09-26T08:15:54.338Z,100330.66
2018-09-26T08:18:23.021Z,100343.18
2018-09-26T08:20:51.563Z,100339.11
2018-09-26T08:23:20.097Z,100337.93
2018-09-26T08:25:48.593Z,100343.70
2018-09-26T08:28:17.137Z,100341.88
2018-09-26T08:30:45.887Z,100339.17
2018-09-26T08:33:14.390Z,100339.06
2018-09-26T08:35:42.860Z,100330.87
2018-09-26T08:38:11.454Z,100337.57
2018-09-26T08:40:40.015Z,100342.70
2018-09-26T08:43:08.583Z,100344.66
2018-09-26T08:45:37.049Z,100334.53
2018-09-26T08:48:05.573Z,100331.28
2018-09-26T08:50:34.021Z,100328.43
2018-09-26T08:53:02.557Z,100337.78
2018-09-26T08:55:30.986Z,100335.08
2018-09-26T08:57:59.486Z,100328.69
2018-09-26T09:00:33.050Z,100329.27
2018-09-26T09:03:01.651Z,100331.36
2018-09-26T09:05:30.496Z,100330.09
2018-09-26T09:08:00.771Z,100328.63
2018-09-26T09:10:29.290Z,100331.48
2018-09-26T09:12:57.875Z,100329.55
2018-09-26T09:15:27.222Z,100333.33
2018-09-26T09:17:55.697Z,100336.47
2018-09-26T09:20:24.619Z,100325.58
2018-09-26T09:22:52.991Z,100328.52
2018-09-26T09:25:21.601Z,100324.73
2018-09-26T09:27:50.098Z,100330.30
2018-09-26T09:30:18.579Z,100323.06
2018-09-26T09:32:47.190Z,100324.15
2018-09-26T09:35:15.729Z,100320.34
2018-09-26T09:37:44.204Z,100330.07
2018-09-26T09:40:12.909Z,100321.28
2018-09-26T09:42:41.478Z,100325.52
2018-09-26T09:45:10.438Z,100319.47
2018-09-26T09:47:38.922Z,100319.95
2018-09-26T09:50:07.729Z,100323.58
2018-09-26T09:52:36.248Z,100324.25
2018-09-26T09:55:04.758Z,100315.33
2018-09-26T09:57:33.206Z,100317.70
2018-09-26T10:00:01.792Z,100314.00
2018-09-26T10:02:30.429Z,100314.55
2018-09-26T10:04:58.937Z,100313.52
2018-09-26T10:07:27.402Z,100307.83
2018-09-26T10:09:56.233Z,100304.49
2018-09-26T10:12:24.669Z,100302.62
2018-09-26T10:14:53.164Z,100302.45
2018-09-26T10:17:21.675Z,100300.61
2018-09-26T10:19:50.166Z,100300.84
2018-09-26T10:22:18.765Z,100301.94
2018-09-26T10:24:47.322Z,100299.09
2018-09-26T10:27:15.753Z,100292.20
2018-09-26T10:29:44.436Z,100291.58
2018-09-26T10:32:13.034Z,100295.73
2018-09-26T10:34:41.543Z,100292.30
2018-09-26T10:37:10.143Z,100287.06
2018-09-26T10:39:38.920Z,100283.80
2018-09-26T10:42:07.601Z,100285.67
2018-09-26T10:44:36.083Z,100279.95
2018-09-26T10:47:04.559Z,100283.31
2018-09-26T10:49:33.064Z,100283.88
2018-09-26T10:52:01.501Z,100280.61
2018-09-26T10:54:30.023Z,100282.04
2018-09-26T10:56:58.474Z,100281.73
2018-09-26T10:59:26.986Z,100276.03
2018-09-26T11:01:55.487Z,100275.54
2018-09-26T11:04:24.107Z,100273.45
2018-09-26T11:06:52.602Z,100275.98
2018-09-26T11:09:21.110Z,100278.47
2018-09-26T11:11:49.602Z,100276.34
2018-09-26T11:14:18.260Z,100271.06
2018-09-26T11:16:46.791Z,100270.94
2018-09-26T11:19:15.309Z,100276.84
2018-09-26T11:21:43.833Z,100274.87
2018-09-26T11:24:12.302Z,100272.04
2018-09-26T11:26:40.856Z,100273.00
2018-09-26T11:29:09.784Z,100267.55
2018-09-26T11:31:38.500Z,100257.17
2018-09-26T11:34:07.519Z,100260.93
2018-09-26T11:36:36.063Z,100255.61
2018-09-26T11:39:06.069Z,100245.61
2018-09-26T11:41:34.636Z,100247.66
2018-09-26T11:44:03.121Z,100243.02
2018-09-26T11:46:31.617Z,100246.66
2018-09-26T11:49:00.054Z,100238.23
2018-09-26T11:51:28.553Z,100240.20
2018-09-26T11:53:57.050Z,100235.62
2018-09-26T11:56:25.868Z,100234.38
2018-09-26T11:58:54.334Z,100223.70
2018-09-26T12:01:22.773Z,100214.84
2018-09-26T12:03:51.419Z,100216.50
2018-09-26T12:06:20.042Z,100208.20
2018-09-26T12:08:48.834Z,100207.30
2018-09-26T12:11:17.334Z,100208.09
2018-09-26T12:13:45.995Z,100199.66
2018-09-26T12:16:14.488Z,100205.08
2018-09-26T12:18:42.972Z,100200.69
2018-09-26T12:21:11.585Z,100194.02
2018-09-26T12:23:40.119Z,100195.47
2018-09-26T12:26:08.714Z,100196.47
2018-09-26T12:28:37.238Z,100189.73
2018-09-26T12:31:05.668Z,100188.52
2018-09-26T12:33:35.189Z,100175.31
2018-09-26T12:36:03.768Z,100185.87
2018-09-26T12:38:32.273Z,100171.27
2018-09-26T12:41:00.754Z,100180.24
2018-09-26T12:43:29.238Z,100180.50
2018-09-26T12:45:57.698Z,100172.91
2018-09-26T12:48:26.264Z,100173.17
2018-09-26T12:50:54.642Z,100174.41
2018-09-26T12:53:23.225Z,100167.77
2018-09-26T12:55:51.634Z,100166.53
2018-09-26T12:58:20.238Z,100166.97
2018-09-26T13:00:48.727Z,100160.88
2018-09-26T13:03:17.347Z,100148.75
2018-09-26T13:05:45.986Z,100145.91
2018-09-26T13:08:14.650Z,100142.22
2018-09-26T13:10:43.125Z,100131.14
2018-09-26T13:13:12.001Z,100131.22
2018-09-26T13:15:40.601Z,100128.41
2018-09-26T13:18:09.662Z,100134.26
2018-09-26T13:20:38.176Z,100122.62
2018-09-26T13:23:06.850Z,100126.08
2018-09-26T13:25:35.390Z,100130.48
2018-09-26T13:28:03.875Z,100127.84
2018-09-26T13:30:32.403Z,100129.09
2018-09-26T13:33:00.951Z,100128.73
2018-09-26T13:35:29.474Z,100126.55
2018-09-26T13:37:57.951Z,100130.23
2018-09-26T13:40:26.505Z,100127.32
2018-09-26T13:42:55.046Z,100114.82
2018-09-26T13:45:23.551Z,100111.70
2018-09-26T13:47:52.286Z,100112.87
2018-09-26T13:50:20.854Z,100100.27
2018-09-26T13:52:49.443Z,100110.00
2018-09-26T13:55:17.980Z,100101.08
2018-09-26T13:57:46.564Z,100099.77
2018-09-26T14:00:16.654Z,100100.30
2018-09-26T14:02:45.824Z,100104.21
2018-09-26T14:05:14.360Z,100099.11
2018-09-26T14:07:42.817Z,100100.30
2018-09-26T14:10:11.377Z,100098.31
2018-09-26T14:12:39.930Z,100100.12
2018-09-26T14:15:08.505Z,100101.69
2018-09-26T14:17:37.081Z,100102.77
2018-09-26T14:20:22.318Z,100093.73
2018-09-26T14:22:50.866Z,100094.38
2018-09-26T14:25:19.551Z,100096.34
2018-09-26T14:27:48.238Z,100097.64
2018-09-26T14:30:16.916Z,100087.67
2018-09-26T14:32:45.580Z,100083.73
2018-09-26T14:35:14.223Z,100084.03
2018-09-26T14:37:42.792Z,100082.38
2018-09-26T14:40:11.759Z,100088.44
2018-09-26T14:42:40.349Z,100089.23
2018-09-26T14:45:09.060Z,100082.62
2018-09-26T14:47:37.678Z,100087.30
2018-09-26T14:50:07.220Z,100071.84
2018-09-26T14:52:35.853Z,100078.09
2018-09-26T14:55:04.489Z,100072.01
2018-09-26T14:57:33.164Z,100071.54
2018-09-26T15:00:01.892Z,100073.77
2018-09-26T15:02:30.433Z,100077.94
2018-09-26T15:04:59.090Z,100071.27
2018-09-26T15:07:27.642Z,100068.00
2018-09-26T15:09:56.355Z,100070.48
2018-09-26T15:12:25.093Z,100064.38
2018-09-26T15:14:53.782Z,100065.66
2018-09-26T15:17:22.369Z,100059.42
2018-09-26T15:19:51.104Z,100057.58
2018-09-26T15:22:19.802Z,100060.13
2018-09-26T15:24:48.354Z,100055.77
2018-09-26T15:27:16.922Z,100054.78
2018-09-26T15:29:45.706Z,100052.77
2018-09-26T15:32:14.751Z,100048.08
2018-09-26T15:34:43.303Z,100054.27
2018-09-26T15:37:12.247Z,100053.58
2018-09-26T15:39:40.795Z,100057.61
2018-09-26T15:42:09.847Z,100042.84
2018-09-26T15:44:38.478Z,100047.09
2018-09-26T15:47:07.180Z,100051.59
2018-09-26T15:49:35.767Z,100049.76
2018-09-26T15:52:04.837Z,100051.84
2018-09-26T15:54:33.481Z,100049.90
2018-09-26T15:57:02.237Z,100051.25
2018-09-26T15:59:30.941Z,100052.12
2018-09-26T16:01:59.697Z,100049.42
2018-09-26T16:04:28.265Z,100043.53
2018-09-26T16:06:56.955Z,100044.34
2018-09-26T16:09:25.411Z,100038.59
2018-09-26T16:11:54.301Z,100037.35
2018-09-26T16:14:22.868Z,100033.53
2018-09-26T16:16:51.414Z,100035.73
2018-09-26T16:19:20.020Z,100032.28
2018-09-26T16:21:49.136Z,100038.62
2018-09-26T16:24:17.758Z,100031.39
2018-09-26T16:26:46.385Z,100037.77
2018-09-26T16:29:15.049Z,100037.95
2018-09-26T16:31:43.546Z,100032.16
2018-09-26T16:34:12.354Z,100037.76
2018-09-26T16:36:40.811Z,100037.60
2018-09-26T16:39:11.742Z,100042.52
2018-09-26T16:41:40.371Z,100038.31
2018-09-26T16:44:09.016Z,100045.58
2018-09-26T16:46:37.769Z,100050.23
2018-09-26T16:49:06.341Z,100044.73
2018-09-26T16:51:34.878Z,100043.22
2018-09-26T16:54:03.570Z,100045.69
2018-09-26T16:56:32.093Z,100053.19
2018-09-26T16:59:00.791Z,100052.72
2018-09-26T17:01:29.465Z,100054.00
2018-09-26T17:03:58.030Z,100051.92
2018-09-26T17:06:26.822Z,100053.45
2018-09-26T17:08:55.545Z,100051.91
2018-09-26T17:11:24.081Z,100056.64
2018-09-26T17:13:52.628Z,100055.98
2018-09-26T17:16:21.289Z,100056.17
2018-09-26T17:18:49.932Z,100062.62
2018-09-26T17:21:18.577Z,100064.34
2018-09-26T17:23:47.110Z,100061.32
2018-09-26T17:26:15.891Z,100062.77
2018-09-26T17:28:44.406Z,100064.22
2018-09-26T17:31:13.147Z,100059.42
2018-09-26T17:33:41.936Z,100065.58
2018-09-26T17:36:10.983Z,100058.86
2018-09-26T17:38:39.916Z,100067.20
2018-09-26T17:41:08.909Z,100065.08
2018-09-26T17:43:37.745Z,100064.84
2018-09-26T17:46:06.511Z,100067.35
2018-09-26T17:48:35.030Z,100068.60
2018-09-26T17:51:03.559Z,100063.05
2018-09-26T17:53:33.074Z,100065.20
2018-09-26T17:56:01.673Z,100069.39
2018-09-26T17:58:30.231Z,100066.63
2018-09-26T18:00:58.947Z,100069.63
2018-09-26T18:03:27.476Z,100072.60
2018-09-26T18:05:55.973Z,100072.02
2018-09-26T18:08:24.837Z,100070.41
2018-09-26T18:10:53.486Z,100069.58
2018-09-26T18:13:22.222Z,100071.55
2018-09-26T18:15:50.697Z,100069.59
2018-09-26T18:18:19.257Z,100060.91
2018-09-26T18:20:47.786Z,100062.97
2018-09-26T18:23:16.313Z,100068.61
2018-09-26T18:25:44.865Z,100069.58
2018-09-26T18:28:13.346Z,100066.60
2018-09-26T18:30:41.850Z,100067.95
2018-09-26T18:33:10.856Z,100067.80
2018-09-26T18:35:39.514Z,100063.16
2018-09-26T18:38:08.014Z,100071.74
2018-09-26T18:40:36.731Z,100068.55
2018-09-26T18:43:05.415Z,100067.66
2018-09-26T18:45:34.045Z,100071.45
2018-09-26T18:48:02.512Z,100073.55
2018-09-26T18:50:30.989Z,100077.23
2018-09-26T18:52:59.701Z,100080.63
2018-09-26T18:55:28.283Z,100082.31
2018-09-26T18:57:56.830Z,100079.34
2018-09-26T19:00:25.344Z,100080.52
2018-09-26T19:02:54.057Z,100078.55
2018-09-26T19:05:22.622Z,100086.78
2018-09-26T19:07:51.655Z,100081.32
2018-09-26T19:10:20.194Z,100079.77
2018-09-26T19:12:48.880Z,100078.98
2018-09-26T19:15:17.479Z,100082.83
2018-09-26T19:17:46.335Z,100084.83
2018-09-26T19:20:15.151Z,100086.14
2018-09-26T19:22:43.828Z,100088.69
2018-09-26T19:25:12.847Z,100089.02
2018-09-26T19:27:42.529Z,100089.77
2018-09-26T19:30:12.142Z,100094.27
2018-09-26T19:32:40.800Z,100095.57
2018-09-26T19:35:09.565Z,100090.64
2018-09-26T19:37:38.242Z,100096.30
2018-09-26T19:40:06.886Z,100099.13
2018-09-26T19:42:35.531Z,100098.95
2018-09-26T19:45:04.053Z,100095.19
2018-09-26T19:47:32.914Z,100092.77
2018-09-26T19:50:01.410Z,100098.54
2018-09-26T19:52:29.935Z,100103.91
2018-09-26T19:54:58.390Z,100105.88
2018-09-26T19:57:26.831Z,100106.95
2018-09-26T19:59:55.590Z,100102.09
2018-09-26T20:02:24.133Z,100107.86
2018-09-26T20:04:52.731Z,100105.97
2018-09-26T20:07:21.208Z,100106.19
2018-09-26T20:09:49.707Z,100104.99
2018-09-26T20:12:18.134Z,100108.47
2018-09-26T20:14:46.958Z,100109.34
2018-09-26T20:17:15.441Z,100110.12
2018-09-26T20:19:43.913Z,100112.75
2018-09-26T20:22:12.591Z,100113.04
2018-09-26T20:24:41.095Z,100119.12
2018-09-26T20:27:10.374Z,100112.42
2018-09-26T20:29:39.016Z,100121.45
2018-09-26T20:32:07.654Z,100118.50
2018-09-26T20:34:36.138Z,100117.56
2018-09-26T20:37:04.776Z,100115.17
2018-09-26T20:39:33.326Z,100117.20
2018-09-26T20:42:02.248Z,100117.56
2018-09-26T20:44:30.792Z,100123.70
2018-09-26T20:46:59.311Z,100123.13
2018-09-26T20:49:27.851Z,100123.52
2018-09-26T20:51:56.570Z,100122.72
2018-09-26T20:54:25.168Z,100122.36
2018-09-26T20:56:53.686Z,100129.06
2018-09-26T20:59:22.186Z,100123.30
2018-09-26T21:01:50.682Z,100124.07
2018-09-26T21:04:19.252Z,100128.29
2018-09-26T21:06:47.873Z,100128.32
2018-09-26T21:09:20.654Z,100128.48
2018-09-26T21:11:49.272Z,100132.77
2018-09-26T21:14:17.742Z,100134.97
2018-09-26T21:16:46.359Z,100134.28
2018-09-26T21:19:14.909Z,100137.80
2018-09-26T21:21:43.740Z,100135.29
2018-09-26T21:24:12.522Z,100141.10
2018-09-26T21:26:40.994Z,100138.69
2018-09-26T21:29:09.797Z,100139.69
2018-09-26T21:31:38.274Z,100131.52
2018-09-26T21:34:06.722Z,100136.42
2018-09-26T21:36:35.243Z,100144.83
2018-09-26T21:39:06.711Z,100139.44
2018-09-26T21:41:35.291Z,100141.93
2018-09-26T21:44:03.955Z,100140.00
2018-09-26T21:46:32.567Z,100132.42
2018-09-26T21:49:01.369Z,100140.16
2018-09-26T21:51:30.085Z,100140.83
2018-09-26T21:53:58.581Z,100142.68
2018-09-26T21:56:27.081Z,100138.66
2018-09-26T21:58:55.558Z,100131.72
2018-09-26T22:01:28.247Z,100135.73
2018-09-26T22:03:57.865Z,100136.25
2018-09-26T22:06:26.574Z,100135.98
2018-09-26T22:08:55.397Z,100123.39
2018-09-26T22:11:24.020Z,100129.56
2018-09-26T22:13:52.694Z,100129.27
2018-09-26T22:16:21.489Z,100131.81
2018-09-26T22:18:50.069Z,100127.66
2018-09-26T22:21:18.546Z,100132.33
2018-09-26T22:23:47.155Z,100138.42
2018-09-26T22:26:15.710Z,100135.37
2018-09-26T22:28:44.157Z,100138.22
2018-09-26T22:31:12.986Z,100132.83
2018-09-26T22:33:41.669Z,100130.88
2018-09-26T22:36:10.325Z,100127.75
2018-09-26T22:38:38.840Z,100130.38
2018-09-26T22:41:07.418Z,100136.27
2018-09-26T22:43:35.921Z,100130.87
2018-09-26T22:46:04.367Z,100134.67
2018-09-26T22:48:32.846Z,100129.95
2018-09-26T22:51:01.302Z,100128.97
2018-09-26T22:53:29.873Z,100126.66
2018-09-26T22:55:58.338Z,100126.97
2018-09-26T22:58:26.985Z,100127.70
2018-09-26T23:00:55.478Z,100127.26
2018-09-26T23:03:24.022Z,100131.27
2018-09-26T23:05:52.478Z,100127.80
2018-09-26T23:08:20.962Z,100129.48
2018-09-26T23:10:49.465Z,100127.19
2018-09-26T23:13:18.010Z,100126.09
2018-09-26T23:15:46.577Z,100121.37
2018-09-26T23:18:15.061Z,100119.17
2018-09-26T23:20:43.474Z,100116.74
2018-09-26T23:23:12.391Z,100111.33
2018-09-26T23:25:40.917Z,100111.27
2018-09-26T23:28:09.440Z,100105.82
2018-09-26T23:30:37.870Z,100106.84
2018-09-26T23:33:06.418Z,100102.33
2018-09-26T23:35:34.854Z,100098.80
2018-09-26T23:38:03.374Z,100089.02
2018-09-26T23:40:31.898Z,100098.91
2018-09-26T23:43:00.410Z,100089.97
2018-09-26T23:45:28.854Z,100097.42
2018-09-26T23:47:57.361Z,100094.44
2018-09-26T23:50:25.929Z,100090.09
2018-09-26T23:52:54.402Z,100095.87
2018-09-26T23:55:22.910Z,100094.70
2018-09-26T23:57:51.365Z,100093.92
